createdAt,value
2023-02-11T00:03:45.288Z,37.67
2023-02-11T00:08:47.837Z,41.83
2023-02-11T00:13:50.204Z,36.38
2023-02-11T00:18:54.434Z,40.20
2023-02-11T00:23:58.366Z,36.60
2023-02-11T00:29:01.917Z,37.97
2023-02-11T00:34:04.157Z,44.20
2023-02-11T00:39:07.567Z,44.42
2023-02-11T00:44:09.654Z,36.33
2023-02-11T00:49:12.083Z,37.15
2023-02-11T00:54:14.235Z,36.58
2023-02-11T00:59:16.533Z,33.28
2023-02-11T01:04:18.820Z,36.83
2023-02-11T01:09:21.585Z,35.00
2023-02-11T01:14:23.900Z,37.30
2023-02-11T01:19:25.980Z,48.42
2023-02-11T01:24:28.568Z,39.65
2023-02-11T01:29:30.958Z,35.35
2023-02-11T01:34:33.055Z,39.50
2023-02-11T01:39:35.974Z,36.97
2023-02-11T01:44:40.617Z,41.42
2023-02-11T01:49:50.375Z,34.25
2023-02-11T01:55:19.267Z,34.75
2023-02-11T02:00:26.677Z,42.25
2023-02-11T02:05:31.701Z,37.40
2023-02-11T02:10:37.006Z,30.15
2023-02-11T02:15:51.062Z,27.98
2023-02-11T02:21:13.784Z,31.67
2023-02-11T02:26:52.087Z,27.88
2023-02-11T02:32:12.752Z,22.58
2023-02-11T02:37:47.941Z,23.63
2023-02-11T02:42:51.386Z,17.08
2023-02-11T02:47:53.845Z,19.40
2023-02-11T02:58:36.412Z,20.13
2023-02-11T03:04:12.598Z,23.77
2023-02-11T03:09:27.189Z,20.70
2023-02-11T03:14:31.151Z,28.67
2023-02-11T03:19:39.183Z,17.95
2023-02-11T03:24:41.931Z,19.42
2023-02-11T03:29:56.111Z,20.92
2023-02-11T03:35:04.202Z,20.02
2023-02-11T03:40:11.134Z,20.88
2023-02-11T03:45:18.987Z,18.05
2023-02-11T03:50:22.487Z,17.77
2023-02-11T03:55:27.060Z,19.42
2023-02-11T04:00:34.375Z,21.00
2023-02-11T04:05:37.082Z,22.10
2023-02-11T04:10:39.271Z,27.73
2023-02-11T04:15:41.415Z,22.40
2023-02-11T04:20:43.798Z,21.90
2023-02-11T04:25:46.006Z,20.95
2023-02-11T04:30:50.744Z,25.08
2023-02-11T04:35:53.030Z,29.73
2023-02-11T04:40:55.243Z,21.17
2023-02-11T04:45:59.146Z,22.38
2023-02-11T04:51:02.737Z,22.70
2023-02-11T04:56:05.275Z,28.55
2023-02-11T05:01:09.753Z,24.10
2023-02-11T05:06:12.099Z,27.70
2023-02-11T05:11:21.901Z,26.17
2023-02-11T05:16:24.249Z,34.05
2023-02-11T05:21:26.440Z,24.30
2023-02-11T05:26:28.661Z,30.30
2023-02-11T05:31:30.837Z,32.60
2023-02-11T05:36:33.569Z,35.30
2023-02-11T05:41:35.731Z,29.13
2023-02-11T05:46:37.974Z,27.00
2023-02-11T05:51:40.308Z,29.77
2023-02-11T05:56:44.717Z,25.80
2023-02-11T06:01:47.091Z,34.63
2023-02-11T06:06:49.270Z,26.48
2023-02-11T06:11:51.353Z,40.30
2023-02-11T06:16:53.548Z,27.85
2023-02-11T06:21:56.858Z,29.80
2023-02-11T06:26:58.934Z,27.10
2023-02-11T06:32:01.149Z,31.88
2023-02-11T06:37:03.699Z,39.10
2023-02-11T06:42:07.921Z,34.55
2023-02-11T06:47:10.255Z,37.22
2023-02-11T06:52:12.490Z,34.70
2023-02-11T06:57:14.637Z,35.85
2023-02-11T07:02:19.666Z,43.45
2023-02-11T07:07:22.857Z,43.45
2023-02-11T07:12:25.013Z,44.60
2023-02-11T07:17:27.188Z,41.28
2023-02-11T07:22:29.298Z,37.85
2023-02-11T07:27:31.487Z,42.85
2023-02-11T07:32:33.636Z,38.10
2023-02-11T07:37:35.997Z,32.95
2023-02-11T07:42:40.713Z,48.10
2023-02-11T07:47:43.201Z,38.05
2023-02-11T07:52:45.397Z,37.08
2023-02-11T07:57:47.567Z,40.00
2023-02-11T08:02:49.731Z,39.25
2023-02-11T08:07:53.360Z,35.20
2023-02-11T08:12:55.730Z,36.25
2023-02-11T08:17:58.007Z,42.83
2023-02-11T08:23:00.225Z,30.42
2023-02-11T08:28:02.357Z,28.23
2023-02-11T08:33:05.093Z,22.20
2023-02-11T08:38:07.272Z,20.70
2023-02-11T08:43:09.411Z,16.92
2023-02-11T08:48:11.665Z,20.10
2023-02-11T08:53:13.985Z,17.50
2023-02-11T08:58:18.787Z,17.25
2023-02-11T09:03:24.063Z,19.52
2023-02-11T09:08:26.410Z,19.13
2023-02-11T09:13:28.720Z,17.85
2023-02-11T09:18:31.385Z,19.25
2023-02-11T09:23:35.023Z,14.05
2023-02-11T09:28:37.474Z,14.48
2023-02-11T09:33:42.452Z,18.08
2023-02-11T09:38:45.451Z,15.55
2023-02-11T09:43:49.991Z,20.20
2023-02-11T09:48:56.625Z,16.38
2023-02-11T09:54:05.609Z,16.58
2023-02-11T09:59:14.398Z,15.50
2023-02-11T10:04:47.756Z,14.40
2023-02-11T10:10:01.972Z,18.80
2023-02-11T10:15:22.068Z,13.23
2023-02-11T10:20:54.845Z,14.80
2023-02-11T10:25:58.161Z,18.42
2023-02-11T10:31:09.175Z,15.55
2023-02-11T10:36:16.806Z,16.35
2023-02-11T10:41:24.822Z,15.55
2023-02-11T10:46:32.596Z,14.10
2023-02-11T10:51:34.902Z,14.63
2023-02-11T10:56:40.292Z,13.63
2023-02-11T11:01:42.485Z,11.00
2023-02-11T11:06:44.854Z,10.73
2023-02-11T11:11:54.147Z,13.15
2023-02-11T11:16:56.353Z,11.20
2023-02-11T11:21:58.586Z,15.07
2023-02-11T11:27:03.546Z,8.93
2023-02-11T11:32:17.782Z,9.80
2023-02-11T11:37:28.474Z,8.73
2023-02-11T11:42:33.619Z,22.10
2023-02-11T11:47:43.395Z,8.80
2023-02-11T11:52:48.135Z,10.50
2023-02-11T11:57:51.249Z,9.40
2023-02-11T12:03:42.667Z,13.90
2023-02-11T12:09:21.950Z,8.98
2023-02-11T12:14:33.259Z,20.10
2023-02-11T12:19:59.703Z,6.10
2023-02-11T12:25:25.794Z,7.72
2023-02-11T12:30:59.916Z,7.95
2023-02-11T12:36:13.883Z,16.35
2023-02-11T12:41:51.476Z,20.92
2023-02-11T12:47:37.506Z,10.05
2023-02-11T12:53:04.616Z,6.60
2023-02-11T12:58:17.596Z,11.30
2023-02-11T13:03:43.681Z,9.90
2023-02-11T13:08:53.988Z,7.05
2023-02-11T13:14:13.297Z,6.82
2023-02-11T13:19:33.459Z,9.05
2023-02-11T13:24:51.599Z,7.95
2023-02-11T13:30:12.171Z,8.38
2023-02-11T13:35:39.840Z,9.30
2023-02-11T13:40:42.089Z,8.82
2023-02-11T13:45:47.496Z,9.55
2023-02-11T13:50:53.817Z,7.78
2023-02-11T13:56:12.408Z,5.85
2023-02-11T14:01:44.646Z,11.93
2023-02-11T14:07:44.142Z,6.57
2023-02-11T14:13:06.675Z,7.22
2023-02-11T14:18:39.621Z,10.38
2023-02-11T14:23:42.594Z,8.52
2023-02-11T14:28:47.131Z,7.68
2023-02-11T14:33:59.986Z,10.07
2023-02-11T14:39:27.454Z,8.07
2023-02-11T14:44:32.841Z,7.57
2023-02-11T14:49:40.286Z,9.32
2023-02-11T14:54:44.374Z,8.20
2023-02-11T15:00:04.582Z,8.68
2023-02-11T15:05:22.557Z,7.38
2023-02-11T15:10:36.371Z,7.20
2023-02-11T15:15:41.150Z,7.50
2023-02-11T15:20:43.531Z,9.70
2023-02-11T15:25:56.233Z,8.50
2023-02-11T15:31:14.120Z,6.63
2023-02-11T15:36:18.045Z,8.00
2023-02-11T15:41:49.494Z,15.38
2023-02-11T15:46:51.789Z,15.02
2023-02-11T15:51:57.403Z,12.05
2023-02-11T15:57:08.837Z,19.45
2023-02-11T16:02:33.193Z,28.88
2023-02-11T16:07:40.807Z,32.65
2023-02-11T16:12:52.208Z,27.77
2023-02-11T16:17:55.001Z,28.13
2023-02-11T16:22:57.296Z,26.27
2023-02-11T16:27:59.552Z,40.88
2023-02-11T16:33:01.975Z,39.45
2023-02-11T16:38:04.120Z,45.38
2023-02-11T16:43:06.345Z,33.03
2023-02-11T16:48:10.205Z,47.28
2023-02-11T16:53:13.956Z,55.08
2023-02-11T16:58:16.480Z,53.35
2023-02-11T17:03:27.428Z,56.80
2023-02-11T17:08:30.944Z,53.38
2023-02-11T17:13:33.790Z,54.35
2023-02-11T17:18:37.291Z,57.80
2023-02-11T17:23:39.943Z,45.75
2023-02-11T17:28:42.190Z,46.88
2023-02-11T17:33:44.479Z,33.22
2023-02-11T17:38:46.749Z,26.02
2023-02-11T17:43:49.015Z,25.83
2023-02-11T17:48:53.282Z,23.35
2023-02-11T17:53:58.483Z,23.58
2023-02-11T17:59:02.740Z,20.50
2023-02-11T18:04:05.972Z,16.40
2023-02-11T18:09:08.263Z,12.73
2023-02-11T18:14:10.783Z,25.15
2023-02-11T18:19:13.446Z,24.83
2023-02-11T18:24:15.693Z,26.02
2023-02-11T18:29:17.846Z,46.45
2023-02-11T18:34:20.033Z,46.60
2023-02-11T18:39:24.476Z,47.33
2023-02-11T18:44:27.622Z,53.50
2023-02-11T18:49:29.782Z,43.90
2023-02-11T18:54:32.039Z,48.85
2023-02-11T18:59:34.259Z,46.55
2023-02-11T19:04:37.867Z,47.17
2023-02-11T19:09:40.077Z,43.22
2023-02-11T19:14:42.245Z,60.55
2023-02-11T19:19:44.422Z,104.78
2023-02-11T19:24:46.695Z,97.57
2023-02-11T19:29:49.043Z,103.90
2023-02-11T19:34:52.260Z,104.88
2023-02-11T19:39:54.503Z,70.95
2023-02-11T19:44:57.589Z,68.80
2023-02-11T19:49:59.924Z,56.05
2023-02-11T19:55:02.140Z,68.05
2023-02-11T20:00:05.339Z,56.60
2023-02-11T20:05:08.245Z,53.33
2023-02-11T20:10:10.846Z,56.38
2023-02-11T20:15:13.112Z,60.97
2023-02-11T20:20:15.348Z,62.17
2023-02-11T20:25:17.630Z,83.90
2023-02-11T20:30:21.885Z,69.50
2023-02-11T20:35:24.037Z,91.60
2023-02-11T20:40:27.455Z,68.35
2023-02-11T20:45:29.710Z,74.05
2023-02-11T20:50:31.849Z,78.05
2023-02-11T20:55:38.416Z,81.22
2023-02-11T21:00:40.615Z,67.78
2023-02-11T21:05:42.815Z,74.05
2023-02-11T21:10:44.986Z,62.92
2023-02-11T21:15:47.236Z,68.15
2023-02-11T21:20:49.718Z,64.63
2023-02-11T21:25:54.143Z,75.75
2023-02-11T21:30:58.271Z,72.10
2023-02-11T21:36:03.082Z,54.00
2023-02-11T21:41:06.239Z,63.58
2023-02-11T21:46:14.807Z,48.88
2023-02-11T21:51:23.326Z,31.80
2023-02-11T21:56:28.800Z,35.17
2023-02-11T22:01:33.649Z,37.72
2023-02-11T22:06:35.951Z,44.50
2023-02-11T22:11:38.382Z,45.83
2023-02-11T22:16:40.792Z,46.00
2023-02-11T22:21:43.748Z,37.88
2023-02-11T22:26:45.878Z,44.92
2023-02-11T22:31:48.102Z,44.47
2023-02-11T22:36:50.244Z,49.65
2023-02-11T22:41:54.732Z,41.05
2023-02-11T22:46:57.250Z,32.05
2023-02-11T22:51:59.874Z,30.20
2023-02-11T22:57:02.075Z,38.55
2023-02-11T23:02:04.488Z,37.58
2023-02-11T23:07:07.457Z,35.67
2023-02-11T23:12:09.569Z,41.13
2023-02-11T23:17:11.781Z,53.72
2023-02-11T23:22:13.885Z,36.00
2023-02-11T23:27:16.010Z,65.22
2023-02-11T23:32:19.652Z,55.53
2023-02-11T23:37:21.924Z,48.78
2023-02-11T23:42:24.091Z,42.05
2023-02-11T23:47:26.204Z,54.75
2023-02-11T23:52:28.656Z,48.10
2023-02-11T23:57:33.256Z,53.65
